Weather History for KD95 - January, 2013

Change the Weather History Date:

Thursday, January 10, 2013

  Actual Average (KFNT) Record (KFNT)
Temperature  
Mean Temperature 30 °F 22 °F  
Max Temperature 40 °F 30 °F 56 °F (1950)
Min Temperature 21 °F 16 °F -14 °F (1984)
Degree Days  
Heating Degree Days 34 42  
Month to date heating degree days 419  
Since 1 July heating degree days 3064  
Cooling Degree Days 0 0  
Month to date cooling degree days 0  
Year to date cooling degree days 0  
Moisture  
Dew Point 26 °F    
Average Humidity 83    
Maximum Humidity 96    
Minimum Humidity 60    
Precipitation  
Precipitation 0.05 in 0.06 in 0.75 in (1924)
Month to date precipitation 0.58  
Year to date precipitation 0.58  
Snow  
Snow 0.00 in 0.50 in 4.80 in ()
Month to date snowfall 4.3  
Since 1 July snowfall 19.0  
Snow Depth -    
Sea Level Pressure  
Sea Level Pressure 30.44 in    
Wind  
Wind Speed 3 mph (SE)    
Max Wind Speed 12 mph    
Max Gust Speed 16 mph    
Visibility 10 miles    
Events Rain    
T = Trace of Precipitation, MM = Missing Value Source: NWS Daily Summary

Daily Weather History Graph

Daily Weather History Graph

Search for Another Location

Airport or City:

Trip Planner

Search our weather history database for the weather conditions in past years. The results will help you decide how hot, cold, wet, or windy it might be!

Date:

Astronomy

Jan. 10, 2013 Rise Set
Actual Time 8:03 AM EST 5:18 PM EST
Civil Twilight 7:31 AM EST 5:50 PM EST
Nautical Twilight 6:56 AM EST 6:25 PM EST
Astronomical Twilight 6:22 AM EST 6:59 PM EST
Moon 6:42 AM EST (1/10) 4:25 PM EST (1/10)
Length of Visible Light 10h 18m
Length of Day
9h 14m
Waning Crescent, 2% of the Moon is Illuminated
Jan 10
Waning Crescent
Jan 11
New
Jan 18
First Quarter
Jan 26
Full
Feb 3
Last Quarter

Hourly Weather History & Observations

Time (EST) Temp. Windchill Dew Point Humidity Pressure Visibility Wind Dir Wind Speed Gust Speed Precip Events Conditions
12:13 AM 27.3 °F - 24.8 °F 90% 30.40 in 10.0 mi Calm Calm - N/A   Clear
12:32 AM 27.0 °F - 24.6 °F 91% 30.40 in 10.0 mi Calm Calm - N/A   Clear
12:53 AM 25.7 °F - 23.9 °F 93% 30.42 in 10.0 mi Calm Calm - N/A   Clear
1:13 AM 26.1 °F 21.9 °F 24.6 °F 94% 30.43 in 10.0 mi SSW 3.5 mph - N/A   Clear
1:32 AM 27.3 °F 22.0 °F 24.1 °F 88% 30.45 in 10.0 mi SW 4.6 mph - N/A   Clear
1:53 AM 29.7 °F 24.7 °F 25.5 °F 85% 30.47 in 10.0 mi SW 4.6 mph - N/A   Clear
2:13 AM 29.8 °F 24.9 °F 25.3 °F 83% 30.49 in 10.0 mi SSW 4.6 mph - N/A   Clear
2:32 AM 29.8 °F 23.9 °F 25.3 °F 83% 30.50 in 10.0 mi SW 5.8 mph - N/A   Clear
2:53 AM 29.7 °F 26.1 °F 25.2 °F 83% 30.52 in 10.0 mi SW 3.5 mph - N/A   Clear
3:13 AM 29.7 °F 26.1 °F 25.2 °F 83% 30.52 in 10.0 mi SW 3.5 mph - N/A   Clear
3:32 AM 29.5 °F - 24.8 °F 83% 30.52 in 10.0 mi Calm Calm - N/A   Clear
3:53 AM 27.0 °F - 24.1 °F 89% 30.52 in 10.0 mi Calm Calm - N/A   Clear
4:13 AM 24.8 °F - 23.2 °F 94% 30.51 in 10.0 mi Calm Calm - N/A   Clear
4:33 AM 24.8 °F - 23.5 °F 95% 30.51 in 10.0 mi Calm Calm - N/A   Clear
4:53 AM 24.3 °F - 22.6 °F 94% 30.50 in 10.0 mi Calm Calm - N/A   Clear
5:13 AM 23.5 °F - 22.3 °F 95% 30.50 in 10.0 mi Calm Calm - N/A   Clear
5:33 AM 23.0 °F - 21.7 °F 95% 30.50 in 10.0 mi Calm Calm - N/A   Clear
5:53 AM 22.6 °F - 21.7 °F 96% 30.50 in 10.0 mi Calm Calm - N/A   Clear
6:13 AM 22.1 °F - 21.0 °F 96% 30.51 in 10.0 mi Calm Calm - N/A   Clear
6:33 AM 22.3 °F - 21.4 °F 96% 30.52 in 10.0 mi Calm Calm - N/A   Clear
6:53 AM 22.5 °F - 21.2 °F 95% 30.53 in 10.0 mi Calm Calm - N/A   Clear
7:33 AM 21.6 °F - 20.3 °F 95% 30.55 in 10.0 mi Calm Calm - N/A   Clear
7:53 AM 22.5 °F - 21.0 °F 94% 30.55 in 10.0 mi Calm Calm - N/A   Clear
8:13 AM 22.1 °F - 21.2 °F 96% 30.55 in 10.0 mi Calm Calm - N/A   Clear
8:33 AM 22.5 °F - 21.2 °F 95% 30.55 in 10.0 mi Calm Calm - N/A   Clear
8:53 AM 22.1 °F - 20.7 °F 94% 30.55 in 10.0 mi Calm Calm - N/A   Clear
9:33 AM 24.4 °F - 23.0 °F 94% 30.55 in 10.0 mi Calm Calm - N/A   Clear
9:53 AM 27.1 °F - 25.3 °F 93% 30.56 in 10.0 mi Calm Calm - N/A   Clear
10:13 AM 28.6 °F - 26.2 °F 91% 30.56 in 10.0 mi Calm Calm - N/A   Clear
10:33 AM 30.0 °F - 26.8 °F 88% 30.56 in 10.0 mi Calm Calm - N/A   Clear
10:53 AM 31.8 °F - 27.7 °F 85% 30.56 in 10.0 mi Calm Calm - N/A   Clear
11:12 AM 32.5 °F - 27.5 °F 82% 30.55 in 10.0 mi Calm Calm - N/A   Clear
11:33 AM 35.1 °F - 27.7 °F 74% 30.53 in 10.0 mi Calm Calm - N/A   Clear
11:53 AM 36.7 °F 31.2 °F 27.3 °F 69% 30.52 in 10.0 mi SE 6.9 mph - N/A   Clear
12:12 PM 37.8 °F 33.3 °F 27.1 °F 66% 30.51 in 10.0 mi SE 5.8 mph - N/A   Clear
12:33 PM 39.2 °F 33.6 °F 27.3 °F 62% 30.50 in 10.0 mi SE 8.1 mph - N/A   Clear
12:53 PM 39.6 °F 36.3 °F 27.7 °F 62% 30.48 in 10.0 mi ESE 4.6 mph - N/A   Clear
1:12 PM 40.1 °F 35.3 °F 27.5 °F 61% 30.48 in 10.0 mi SSE 6.9 mph - N/A   Clear
1:33 PM 39.4 °F 34.5 °F 27.0 °F 61% 30.46 in 10.0 mi SE 6.9 mph - N/A   Clear
1:53 PM 39.2 °F 34.2 °F 27.0 °F 62% 30.46 in 10.0 mi SE 6.9 mph - N/A   Clear
2:12 PM 38.8 °F 32.6 °F 25.9 °F 60% 30.45 in 10.0 mi SE 9.2 mph - N/A   Clear
2:33 PM 38.5 °F 34.1 °F 26.8 °F 63% 30.44 in 10.0 mi SE 5.8 mph - N/A   Clear
2:53 PM 37.9 °F 32.7 °F 26.8 °F 64% 30.43 in 10.0 mi SE 6.9 mph - N/A   Clear
3:13 PM 37.6 °F 33.1 °F 27.0 °F 66% 30.43 in 10.0 mi SE 5.8 mph - N/A   Clear
3:33 PM 37.4 °F 32.1 °F 26.8 °F 66% 30.43 in 10.0 mi SE 6.9 mph - N/A   Clear
3:53 PM 37.0 °F 32.4 °F 27.1 °F 67% 30.42 in 10.0 mi SE 5.8 mph - N/A   Clear
4:12 PM 36.5 °F 31.0 °F 27.7 °F 70% 30.42 in 10.0 mi SE 6.9 mph - N/A   Clear
4:33 PM 36.1 °F 31.4 °F 27.7 °F 71% 30.41 in 10.0 mi SE 5.8 mph - N/A   Clear
4:53 PM 35.8 °F 30.1 °F 27.5 °F 72% 30.40 in 10.0 mi ESE 6.9 mph - N/A   Clear
5:13 PM 35.2 °F 30.3 °F 27.3 °F 73% 30.40 in 10.0 mi ESE 5.8 mph - N/A   Clear
5:33 PM 35.1 °F 30.1 °F 27.9 °F 75% 30.40 in 10.0 mi SE 5.8 mph - N/A   Clear
5:53 PM 34.7 °F 28.1 °F 28.4 °F 78% 30.39 in 10.0 mi SE 8.1 mph - N/A   Clear
6:13 PM 34.7 °F 28.1 °F 28.4 °F 78% 30.38 in 10.0 mi SE 8.1 mph - N/A   Clear
6:33 PM 34.7 °F 28.8 °F 28.8 °F 79% 30.38 in 10.0 mi SE 6.9 mph - N/A   Clear
6:53 PM 34.0 °F 28.8 °F 29.3 °F 83% 30.36 in 10.0 mi East 5.8 mph - N/A   Clear
7:13 PM 33.8 °F 28.6 °F 29.1 °F 83% 30.36 in 10.0 mi ESE 5.8 mph - N/A   Clear
7:33 PM 33.8 °F 28.6 °F 29.3 °F 84% 30.35 in 10.0 mi ESE 5.8 mph - N/A   Clear
7:52 PM 33.8 °F 27.0 °F 29.3 °F 84% 30.34 in 10.0 mi ESE 8.1 mph - N/A   Clear
8:13 PM 33.4 °F 26.6 °F 29.5 °F 85% 30.33 in 10.0 mi ESE 8.1 mph - N/A   Clear
8:33 PM 33.8 °F 26.4 °F 29.3 °F 84% 30.33 in 10.0 mi ESE 9.2 mph - N/A   Clear
8:52 PM 33.8 °F 27.7 °F 29.3 °F 84% 30.32 in 10.0 mi SE 6.9 mph - N/A   Clear
9:13 PM 33.8 °F 25.8 °F 29.7 °F 85% 30.30 in 10.0 mi ESE 10.4 mph - N/A   Clear
9:33 PM 34.0 °F 27.2 °F 29.7 °F 84% 30.29 in 10.0 mi ESE 8.1 mph - N/A   Clear
9:52 PM 34.2 °F 26.8 °F 29.8 °F 84% 30.27 in 10.0 mi ESE 9.2 mph - N/A   Scattered Clouds
10:13 PM 34.3 °F 27.0 °F 30.0 °F 84% 30.26 in 10.0 mi SE 9.2 mph 16.1 mph N/A   Light Drizzle
10:33 PM 34.2 °F 27.5 °F 30.4 °F 86% 30.25 in 7.0 mi SE 8.1 mph - N/A Rain Light Rain
10:52 PM 33.8 °F 25.8 °F 31.1 °F 90% 30.23 in 7.0 mi ESE 10.4 mph - N/A Rain Light Rain
11:13 PM 33.8 °F 26.4 °F 31.3 °F 90% 30.21 in 7.0 mi SE 9.2 mph - 0.01 in Rain Rain
11:33 PM 33.8 °F 26.4 °F 31.8 °F 92% 30.20 in 4.0 mi SE 9.2 mph 16.1 mph 0.03 in Rain Light Rain
11:52 PM 33.8 °F 25.3 °F 31.8 °F 92% 30.19 in 5.0 mi SE 11.5 mph - 0.05 in Rain Rain